Time;durP1;ratioP1;P1;durP2;ratioP2;P2;SDS_P1;SDS_P2;PMS_P1;PMS_P2;Temp;Humidity;BMP_temperature;BMP_pressure;BME280_temperature;BME280_humidity;BME280_pressure;Samples;Min_cycle;Max_cycle;Signal;HPM_P1;HPM_P2
2021/06/08 03:00:14;;;;;;;50.17;45.80;;;18.80;99.90;;;;;;5984129;23;20911;31
2021/06/08 03:02:42;;;;;;;49.17;44.87;;;18.70;99.90;;;;;;4875818;29;20468;-71
2021/06/08 03:05:15;;;;;;;49.10;44.73;;;18.70;99.90;;;;;;4877165;29;20448;-72
2021/06/08 03:07:46;;;;;;;49.20;44.50;;;18.70;99.90;;;;;;4867847;29;20840;-71
2021/06/08 03:10:16;;;;;;;50.73;46.03;;;18.60;99.90;;;;;;4859331;29;20457;-72
2021/06/08 03:12:47;;;;;;;51.37;46.97;;;18.60;99.90;;;;;;4859237;29;20520;-72
2021/06/08 03:15:16;;;;;;;49.67;45.30;;;18.60;99.90;;;;;;4859016;29;20630;-72
2021/06/08 17:34:22;;;;;;;30.50;28.33;;;21.80;99.90;;;;;;5063705;23;20925;-72
2021/06/08 17:36:48;;;;;;;30.77;28.53;;;21.80;99.90;;;;;;4947345;29;20501;-72
2021/06/08 17:39:14;;;;;;;27.80;25.90;;;21.80;99.90;;;;;;4942881;29;20473;-73
2021/06/08 17:41:40;;;;;;;29.17;27.10;;;21.90;99.90;;;;;;4936117;29;20453;-72
2021/06/08 17:44:06;;;;;;;29.23;27.00;;;21.80;99.90;;;;;;4935973;29;20453;-72
2021/06/08 17:46:34;;;;;;;26.40;24.40;;;21.90;99.90;;;;;;4936043;29;20795;-72
2021/06/08 17:49:02;;;;;;;28.30;26.40;;;21.90;99.90;;;;;;4936035;29;20518;-72
2021/06/08 17:51:30;;;;;;;26.87;25.07;;;21.90;99.90;;;;;;4936338;29;20981;-73
2021/06/08 17:53:56;;;;;;;27.87;25.67;;;21.90;99.90;;;;;;4936207;29;20453;-72
2021/06/08 17:56:22;;;;;;;25.87;24.17;;;21.90;99.90;;;;;;4936350;29;20461;-72
2021/06/08 17:58:48;;;;;;;29.23;26.93;;;21.80;99.90;;;;;;4936074;29;20469;-72
2021/06/08 18:01:16;;;;;;;26.50;24.80;;;21.80;99.90;;;;;;4936240;29;20449;-72
2021/06/08 18:03:42;;;;;;;28.50;26.60;;;21.80;99.90;;;;;;4936316;29;20469;-72
2021/06/08 18:06:08;;;;;;;30.70;28.67;;;21.70;99.90;;;;;;4936492;29;20453;-73
2021/06/08 18:08:36;;;;;;;29.60;27.30;;;21.50;99.90;;;;;;4936208;29;20462;-72
2021/06/08 18:11:02;;;;;;;31.63;29.47;;;21.50;99.90;;;;;;4936075;29;20453;-72
2021/06/08 18:13:28;;;;;;;31.37;29.17;;;21.40;99.90;;;;;;4935992;29;20453;-72
2021/06/08 18:15:55;;;;;;;32.57;30.47;;;21.30;99.90;;;;;;4936118;29;20464;-71
2021/06/08 18:18:34;;;;;;;32.70;30.60;;;21.20;99.90;;;;;;4935783;29;20513;-71
2021/06/08 18:21:02;;;;;;;32.20;30.10;;;21.00;99.90;;;;;;4935659;29;20453;-72
2021/06/08 18:23:29;;;;;;;34.77;32.13;;;20.90;99.90;;;;;;4935201;29;20462;-71
2021/06/08 18:25:58;;;;;;;32.23;30.13;;;20.80;99.90;;;;;;4935998;29;20462;-72
2021/06/08 18:28:24;;;;;;;33.07;30.77;;;20.80;99.90;;;;;;4935727;29;20453;-72
2021/06/08 18:30:50;;;;;;;34.47;31.87;;;20.70;99.90;;;;;;4935519;29;20453;-72
2021/06/08 18:33:16;;;;;;;34.07;31.50;;;20.70;99.90;;;;;;4935199;29;20481;-72
2021/06/08 18:35:42;;;;;;;35.43;33.00;;;20.70;99.90;;;;;;4935389;29;20996;-72
2021/06/08 18:38:09;;;;;;;33.33;31.03;;;20.70;99.90;;;;;;4935781;29;20913;-72
2021/06/08 18:40:35;;;;;;;34.43;32.03;;;20.70;99.90;;;;;;4935434;29;20520;-72
2021/06/08 18:43:03;;;;;;;36.27;33.13;;;20.70;99.90;;;;;;4935131;29;20628;-71
2021/06/08 18:45:29;;;;;;;32.23;29.83;;;20.70;99.90;;;;;;4935368;29;20453;-71
2021/06/08 18:47:55;;;;;;;35.27;32.77;;;20.80;99.90;;;;;;4935592;29;20446;-72
2021/06/08 18:50:21;;;;;;;35.53;32.87;;;20.80;99.90;;;;;;4935150;29;20526;-72
2021/06/08 18:52:48;;;;;;;32.93;30.60;;;20.80;99.90;;;;;;4935171;29;20457;-72
2021/06/08 18:55:14;;;;;;;33.70;31.33;;;20.90;99.90;;;;;;4934867;29;20461;-72
2021/06/08 18:57:41;;;;;;;34.43;31.97;;;20.90;99.90;;;;;;4935125;29;20544;-72
2021/06/08 19:00:12;;;;;;;34.97;31.80;;;20.80;99.90;;;;;;4934952;29;20970;-72
2021/06/08 19:02:38;;;;;;;33.00;30.70;;;20.80;99.90;;;;;;4934973;29;20931;-72
2021/06/08 19:05:05;;;;;;;31.63;29.27;;;20.90;99.90;;;;;;4934683;29;20455;-72
2021/06/08 19:07:31;;;;;;;35.10;32.07;;;20.90;99.90;;;;;;4934792;29;20943;-72
2021/06/08 19:09:58;;;;;;;33.30;30.90;;;20.80;99.90;;;;;;4934881;29;20473;-72
2021/06/08 19:12:24;;;;;;;33.97;31.40;;;20.80;99.90;;;;;;4934900;29;20462;-72
2021/06/08 19:14:50;;;;;;;33.23;30.77;;;20.80;99.90;;;;;;4934533;29;20468;-73
2021/06/08 19:17:20;;;;;;;33.37;30.97;;;20.80;99.90;;;;;;4934643;29;20495;-73
2021/06/08 19:19:46;;;;;;;34.03;31.43;;;20.70;99.90;;;;;;4934358;29;20520;-73
2021/06/08 19:22:12;;;;;;;32.90;30.40;;;20.70;99.90;;;;;;4934647;29;20465;-72
2021/06/08 19:24:38;;;;;;;36.27;33.47;;;20.50;99.90;;;;;;4934850;29;20453;-72
2021/06/08 19:27:05;;;;;;;36.97;34.27;;;20.30;99.90;;;;;;4934436;29;20449;-72
2021/06/08 19:29:31;;;;;;;39.13;35.80;;;20.10;99.90;;;;;;4934576;29;20549;-73
2021/06/08 19:31:57;;;;;;;37.07;34.07;;;19.90;99.90;;;;;;4934373;29;20481;-73
2021/06/08 19:34:25;;;;;;;35.83;33.13;;;19.80;99.90;;;;;;4933523;29;20485;-72
2021/06/08 19:36:51;;;;;;;36.50;33.73;;;19.60;99.90;;;;;;4934221;29;20568;-72
2021/06/08 19:39:17;;;;;;;40.20;37.00;;;19.40;99.90;;;;;;4934361;29;20534;-72
2021/06/08 19:41:43;;;;;;;36.63;33.60;;;19.40;99.90;;;;;;4934113;29;20951;-72
2021/06/08 19:44:10;;;;;;;39.17;36.13;;;19.40;99.90;;;;;;4934501;29;20465;-71
2021/06/08 19:46:37;;;;;;;35.70;32.80;;;19.20;99.90;;;;;;4930150;29;20512;-71
2021/06/08 19:49:03;;;;;;;37.30;34.20;;;19.20;99.90;;;;;;4932298;29;20520;-71
2021/06/08 19:51:33;;;;;;;36.53;33.57;;;19.20;99.90;;;;;;4933197;29;20469;-70
2021/06/08 19:53:59;;;;;;;35.23;32.43;;;19.10;99.90;;;;;;4933827;29;20461;-71
2021/06/08 19:56:25;;;;;;;35.83;32.93;;;19.10;99.90;;;;;;4933575;29;20457;-68
2021/06/08 19:58:51;;;;;;;35.20;32.10;;;19.10;99.90;;;;;;4933453;29;20468;-70
2021/06/08 20:01:18;;;;;;;36.90;33.63;;;19.00;99.90;;;;;;4933543;29;20468;-71
2021/06/08 20:03:44;;;;;;;35.93;32.90;;;19.00;99.90;;;;;;4933841;29;20453;-71
2021/06/08 20:06:10;;;;;;;35.10;32.40;;;19.10;99.90;;;;;;4933978;29;20505;-73
2021/06/08 20:08:38;;;;;;;34.23;31.63;;;19.00;99.90;;;;;;4933461;29;20454;-72
2021/06/08 20:11:05;;;;;;;35.63;32.27;;;19.00;99.90;;;;;;4933613;29;20453;-72
2021/06/08 20:13:31;;;;;;;35.13;32.43;;;19.00;99.90;;;;;;4933399;29;20457;-72
2021/06/08 20:15:57;;;;;;;34.53;31.73;;;19.10;99.90;;;;;;4933778;29;20453;-73
2021/06/08 20:18:24;;;;;;;31.30;28.77;;;19.10;99.90;;;;;;4933602;29;20497;-73
2021/06/08 20:20:50;;;;;;;34.73;31.90;;;19.10;99.90;;;;;;4933539;29;20460;-72
2021/06/08 20:23:16;;;;;;;34.30;31.50;;;19.00;99.90;;;;;;4933636;29;20479;-72
2021/06/08 20:25:44;;;;;;;37.73;34.00;;;19.00;99.90;;;;;;4933456;29;20460;-73
2021/06/08 20:28:10;;;;;;;34.83;31.70;;;19.00;99.90;;;;;;4933437;29;20826;-74
2021/06/08 20:30:36;;;;;;;37.43;34.23;;;19.00;99.90;;;;;;4933552;29;20458;-73
2021/06/08 20:33:02;;;;;;;37.00;33.90;;;19.10;99.90;;;;;;4932980;29;20556;-73
2021/06/08 20:35:29;;;;;;;38.03;34.57;;;19.10;99.90;;;;;;4933403;29;20465;-73
2021/06/08 20:37:58;;;;;;;35.67;32.87;;;19.10;99.90;;;;;;4933596;29;20913;-72
2021/06/08 20:40:24;;;;;;;35.53;32.63;;;19.10;99.90;;;;;;4933820;29;20495;-72
2021/06/08 20:42:53;;;;;;;37.27;34.40;;;19.10;99.90;;;;;;4932982;29;20948;-72
2021/06/08 20:45:22;;;;;;;35.67;32.67;;;19.10;99.90;;;;;;4933352;29;20457;-72
2021/06/08 20:47:49;;;;;;;35.07;32.20;;;19.00;99.90;;;;;;4937261;29;20493;-72
2021/06/08 20:50:15;;;;;;;35.40;32.67;;;19.00;99.90;;;;;;4936963;29;20516;-72
2021/06/08 20:52:41;;;;;;;37.73;34.03;;;19.00;99.90;;;;;;4937243;29;20457;-72
2021/06/08 20:55:10;;;;;;;35.30;32.17;;;18.90;99.90;;;;;;4937227;29;20457;-72
2021/06/08 20:57:36;;;;;;;37.53;34.43;;;18.90;99.90;;;;;;4937240;29;20492;-72
2021/06/08 21:00:06;;;;;;;35.90;32.70;;;18.90;99.90;;;;;;4936812;29;20460;-72
2021/06/08 21:02:32;;;;;;;37.70;34.57;;;18.80;99.90;;;;;;4937089;29;20461;-72
2021/06/08 21:04:59;;;;;;;38.23;34.67;;;18.70;99.90;;;;;;4936926;29;20872;-73
2021/06/08 21:07:25;;;;;;;37.90;34.67;;;18.70;99.90;;;;;;4937434;29;20449;-72
2021/06/08 21:09:51;;;;;;;36.20;33.23;;;18.70;99.90;;;;;;4937056;29;20464;-72
2021/06/08 21:12:17;;;;;;;37.33;34.13;;;18.70;99.90;;;;;;4936690;29;20595;-72
2021/06/08 21:14:43;;;;;;;37.20;33.80;;;18.70;99.90;;;;;;4936792;29;20457;-72
2021/06/08 21:17:11;;;;;;;39.63;36.23;;;18.70;99.90;;;;;;4936853;29;21010;-72
2021/06/08 21:19:37;;;;;;;37.10;33.97;;;18.80;99.90;;;;;;4936898;29;20963;-72
2021/06/08 21:22:03;;;;;;;37.33;34.33;;;18.80;99.90;;;;;;4936515;29;20454;-72
2021/06/08 21:24:32;;;;;;;37.63;34.43;;;18.70;99.90;;;;;;4936614;29;20931;-72
2021/06/08 21:26:58;;;;;;;37.50;34.40;;;18.70;99.90;;;;;;4936763;29;20520;-73
2021/06/08 21:29:24;;;;;;;37.63;34.20;;;18.70;99.90;;;;;;4936660;29;20450;-73
2021/06/08 21:31:50;;;;;;;38.67;35.47;;;18.70;99.90;;;;;;4936417;29;20480;-73
2021/06/08 21:34:18;;;;;;;36.53;33.57;;;18.70;99.90;;;;;;4936363;29;20487;-72
2021/06/08 21:36:44;;;;;;;32.00;29.10;;;18.70;99.90;;;;;;4936346;29;20465;-73
2021/06/08 21:39:10;;;;;;;35.17;32.27;;;18.70;99.90;;;;;;4936578;29;20956;-72
2021/06/08 21:41:36;;;;;;;35.10;32.10;;;18.60;99.90;;;;;;4936020;29;20512;-73
2021/06/08 21:44:04;;;;;;;38.30;35.00;;;18.60;99.90;;;;;;4936318;29;20464;-73
2021/06/08 21:46:30;;;;;;;39.73;35.77;;;18.50;99.90;;;;;;4936219;29;20489;-73
2021/06/08 21:48:56;;;;;;;40.40;36.40;;;18.50;99.90;;;;;;4936380;29;20462;-73
2021/06/08 21:51:24;;;;;;;39.37;35.87;;;18.40;99.90;;;;;;4936232;29;20457;-73
2021/06/08 21:53:50;;;;;;;37.80;34.30;;;18.50;99.90;;;;;;4936032;29;20526;-73
2021/06/08 21:56:16;;;;;;;37.17;33.87;;;18.30;99.90;;;;;;4935759;29;20994;-73
2021/06/08 21:58:42;;;;;;;37.87;34.57;;;18.20;99.90;;;;;;4935227;29;20502;-73
2021/06/08 22:01:08;;;;;;;39.90;36.50;;;18.20;99.90;;;;;;4936378;29;20549;-73
2021/06/08 22:03:34;;;;;;;40.77;37.20;;;18.20;99.90;;;;;;4935974;29;20461;-74
2021/06/08 22:06:01;;;;;;;45.13;40.33;;;18.20;99.90;;;;;;4935868;29;20457;-73
2021/06/08 22:08:28;;;;;;;44.30;40.37;;;18.10;99.90;;;;;;4935737;29;20450;-73
2021/06/08 22:10:54;;;;;;;44.40;40.30;;;18.10;99.90;;;;;;4936116;29;20885;-72
2021/06/08 22:13:22;;;;;;;44.80;40.73;;;18.10;99.90;;;;;;4935901;29;20453;-73
2021/06/08 22:15:48;;;;;;;45.43;41.30;;;18.10;99.90;;;;;;4935922;29;20457;-73
2021/06/08 22:18:19;;;;;;;42.03;38.10;;;18.10;99.90;;;;;;4935993;29;20529;-72
2021/06/08 22:20:46;;;;;;;43.53;39.27;;;18.00;99.90;;;;;;4935589;29;20962;-72
2021/06/08 22:23:12;;;;;;;44.13;40.13;;;18.00;99.90;;;;;;4935501;29;20465;-72
2021/06/08 22:25:39;;;;;;;42.20;38.50;;;18.00;99.90;;;;;;4935742;29;20468;-72
2021/06/08 22:28:06;;;;;;;42.77;38.77;;;17.90;99.90;;;;;;4935540;29;20485;-73
2021/06/08 22:30:32;;;;;;;43.00;39.07;;;17.80;99.90;;;;;;4935420;29;20457;-73
2021/06/08 22:32:58;;;;;;;44.80;40.93;;;17.80;99.90;;;;;;4935047;29;20493;-72
2021/06/08 22:35:25;;;;;;;43.70;39.30;;;17.80;99.90;;;;;;4935441;29;20504;-72
2021/06/08 22:37:52;;;;;;;47.10;42.33;;;17.70;99.90;;;;;;4935265;29;20493;-73
2021/06/08 22:40:20;;;;;;;48.47;43.87;;;17.70;99.90;;;;;;4935299;29;20465;-73
2021/06/08 22:42:48;;;;;;;44.97;40.87;;;17.60;99.90;;;;;;4935252;29;20446;-73
2021/06/08 22:45:15;;;;;;;46.60;42.10;;;17.60;99.90;;;;;;4935133;29;20975;-72
2021/06/08 22:47:41;;;;;;;47.97;43.23;;;17.60;99.90;;;;;;4935078;29;20462;-72
2021/06/08 22:50:10;;;;;;;47.77;43.53;;;17.50;99.90;;;;;;4935327;29;20902;-73
2021/06/08 22:52:36;;;;;;;46.17;41.83;;;17.50;99.90;;;;;;4935106;29;20456;-73
2021/06/08 22:55:04;;;;;;;47.83;43.30;;;17.50;99.90;;;;;;4935150;29;20458;-72
2021/06/08 22:57:30;;;;;;;49.67;44.70;;;17.40;99.90;;;;;;4934768;29;20484;-73
2021/06/08 22:59:57;;;;;;;49.53;44.97;;;17.40;99.90;;;;;;4935112;29;20809;-73
2021/06/08 23:02:23;;;;;;;49.43;44.67;;;17.40;99.90;;;;;;4935250;29;20457;-73
2021/06/08 23:04:50;;;;;;;50.93;45.63;;;17.30;99.90;;;;;;4934781;29;20457;-73
2021/06/08 23:07:16;;;;;;;50.43;45.33;;;17.30;99.90;;;;;;4934795;29;20955;-73
2021/06/08 23:09:42;;;;;;;52.43;47.17;;;17.30;99.90;;;;;;4934724;29;20465;-73
2021/06/08 23:12:11;;;;;;;53.90;48.43;;;17.20;99.90;;;;;;4934869;29;20461;-73
2021/06/08 23:14:37;;;;;;;53.63;48.43;;;17.20;99.90;;;;;;4934923;29;20461;-73
2021/06/08 23:17:04;;;;;;;52.73;47.27;;;17.10;99.90;;;;;;4934485;29;20884;-73
2021/06/08 23:19:31;;;;;;;53.40;46.90;;;17.10;99.90;;;;;;4934652;29;20461;-72
2021/06/08 23:21:57;;;;;;;51.47;46.27;;;17.10;99.90;;;;;;4934668;29;20461;-72
2021/06/08 23:24:23;;;;;;;52.33;46.73;;;17.10;99.90;;;;;;4934622;29;20464;-72
2021/06/08 23:26:53;;;;;;;51.83;46.43;;;17.00;99.90;;;;;;4934513;29;20838;-72
2021/06/08 23:29:19;;;;;;;50.93;45.70;;;17.00;99.90;;;;;;4934128;29;20488;-72
2021/06/08 23:31:45;;;;;;;53.63;47.77;;;17.00;99.90;;;;;;4934466;29;20481;-72
2021/06/08 23:34:13;;;;;;;51.90;46.70;;;16.90;99.90;;;;;;4934347;29;20614;-72
2021/06/08 23:36:39;;;;;;;54.87;49.37;;;16.90;99.90;;;;;;4934730;29;20817;-72
2021/06/08 23:39:06;;;;;;;52.37;47.13;;;17.00;99.90;;;;;;4934171;29;20495;-71
2021/06/08 23:41:32;;;;;;;51.00;45.80;;;16.90;99.90;;;;;;4934130;29;20801;-71
2021/06/08 23:43:58;;;;;;;53.90;48.30;;;16.80;99.90;;;;;;4934296;29;20513;-74
2021/06/08 23:46:25;;;;;;;56.33;47.63;;;16.80;99.90;;;;;;4934315;29;20493;-72
2021/06/08 23:48:51;;;;;;;54.60;49.03;;;16.70;99.90;;;;;;4934426;29;20806;-72
2021/06/08 23:51:19;;;;;;;53.50;47.97;;;16.70;99.90;;;;;;4934257;29;20476;-73
2021/06/08 23:53:45;;;;;;;56.17;50.00;;;16.70;99.90;;;;;;4933860;29;20465;-73
2021/06/08 23:56:12;;;;;;;54.60;48.83;;;16.70;99.90;;;;;;4934602;29;20453;-73
2021/06/08 23:58:38;;;;;;;54.03;48.30;;;16.70;99.90;;;;;;4934044;29;20496;-73
